sensor_id;sensor_type;location;lat;lon;timestamp;P1;durP1;ratioP1;P2;durP2;ratioP2
76617;SDS011;65509;42.816;74.648;2023-09-12T00:00:53;19.58;;;2.60;;
76617;SDS011;65509;42.816;74.648;2023-09-12T00:03:19;25.48;;;3.08;;
76617;SDS011;65509;42.816;74.648;2023-09-12T00:05:55;24.70;;;3.03;;
76617;SDS011;65509;42.816;74.648;2023-09-12T00:08:21;13.23;;;1.98;;
76617;SDS011;65509;42.816;74.648;2023-09-12T00:10:47;13.63;;;1.85;;
76617;SDS011;65509;42.816;74.648;2023-09-12T00:13:12;26.50;;;3.55;;
76617;SDS011;65509;42.816;74.648;2023-09-12T00:15:38;26.45;;;3.85;;
76617;SDS011;65509;42.816;74.648;2023-09-12T00:18:04;18.60;;;2.70;;
76617;SDS011;65509;42.816;74.648;2023-09-12T00:20:29;24.77;;;3.30;;
76617;SDS011;65509;42.816;74.648;2023-09-12T00:22:55;15.05;;;2.70;;
76617;SDS011;65509;42.816;74.648;2023-09-12T00:25:21;19.02;;;2.70;;
76617;SDS011;65509;42.816;74.648;2023-09-12T00:27:46;29.02;;;3.70;;
76617;SDS011;65509;42.816;74.648;2023-09-12T00:30:13;25.42;;;2.67;;
76617;SDS011;65509;42.816;74.648;2023-09-12T00:32:39;23.20;;;3.03;;
76617;SDS011;65509;42.816;74.648;2023-09-12T00:35:04;21.88;;;2.65;;
76617;SDS011;65509;42.816;74.648;2023-09-12T00:37:30;28.63;;;3.17;;
76617;SDS011;65509;42.816;74.648;2023-09-12T00:39:55;30.63;;;3.63;;
76617;SDS011;65509;42.816;74.648;2023-09-12T00:42:21;35.05;;;3.83;;
76617;SDS011;65509;42.816;74.648;2023-09-12T00:44:46;28.13;;;3.17;;
76617;SDS011;65509;42.816;74.648;2023-09-12T00:47:12;32.88;;;3.25;;
76617;SDS011;65509;42.816;74.648;2023-09-12T00:49:38;40.88;;;3.88;;
76617;SDS011;65509;42.816;74.648;2023-09-12T00:52:04;39.33;;;4.00;;
76617;SDS011;65509;42.816;74.648;2023-09-12T00:54:30;23.95;;;3.55;;
76617;SDS011;65509;42.816;74.648;2023-09-12T00:56:55;19.05;;;2.65;;
76617;SDS011;65509;42.816;74.648;2023-09-12T00:59:21;29.27;;;3.47;;
76617;SDS011;65509;42.816;74.648;2023-09-12T01:01:47;33.15;;;4.00;;
76617;SDS011;65509;42.816;74.648;2023-09-12T01:04:12;33.80;;;3.53;;
76617;SDS011;65509;42.816;74.648;2023-09-12T01:06:38;26.17;;;3.33;;
76617;SDS011;65509;42.816;74.648;2023-09-12T01:09:03;25.23;;;2.67;;
76617;SDS011;65509;42.816;74.648;2023-09-12T01:11:29;29.95;;;3.35;;
76617;SDS011;65509;42.816;74.648;2023-09-12T01:13:55;25.90;;;3.17;;
76617;SDS011;65509;42.816;74.648;2023-09-12T01:16:20;41.83;;;3.22;;
76617;SDS011;65509;42.816;74.648;2023-09-12T01:18:46;30.08;;;3.85;;
76617;SDS011;65509;42.816;74.648;2023-09-12T01:21:22;25.08;;;3.58;;
76617;SDS011;65509;42.816;74.648;2023-09-12T01:26:37;21.52;;;2.90;;
76617;SDS011;65509;42.816;74.648;2023-09-12T01:29:06;32.42;;;4.00;;
76617;SDS011;65509;42.816;74.648;2023-09-12T01:31:31;22.17;;;3.00;;
76617;SDS011;65509;42.816;74.648;2023-09-12T01:34:07;28.10;;;3.47;;
76617;SDS011;65509;42.816;74.648;2023-09-12T01:36:33;28.88;;;3.67;;
76617;SDS011;65509;42.816;74.648;2023-09-12T01:38:58;34.35;;;3.70;;
76617;SDS011;65509;42.816;74.648;2023-09-12T01:41:23;29.20;;;3.00;;
76617;SDS011;65509;42.816;74.648;2023-09-12T01:43:49;35.53;;;4.00;;
76617;SDS011;65509;42.816;74.648;2023-09-12T01:46:16;33.80;;;4.13;;
76617;SDS011;65509;42.816;74.648;2023-09-12T01:48:42;39.50;;;4.22;;
76617;SDS011;65509;42.816;74.648;2023-09-12T01:51:09;29.52;;;3.33;;
76617;SDS011;65509;42.816;74.648;2023-09-12T01:53:34;27.27;;;3.13;;
76617;SDS011;65509;42.816;74.648;2023-09-12T01:56:01;27.88;;;3.25;;
76617;SDS011;65509;42.816;74.648;2023-09-12T01:58:26;43.33;;;4.57;;
76617;SDS011;65509;42.816;74.648;2023-09-12T02:00:52;41.35;;;5.45;;
76617;SDS011;65509;42.816;74.648;2023-09-12T02:03:18;37.38;;;5.15;;
76617;SDS011;65509;42.816;74.648;2023-09-12T02:05:43;45.40;;;5.63;;
76617;SDS011;65509;42.816;74.648;2023-09-12T02:08:09;24.20;;;3.40;;
76617;SDS011;65509;42.816;74.648;2023-09-12T02:10:34;36.67;;;4.30;;
76617;SDS011;65509;42.816;74.648;2023-09-12T02:13:00;28.35;;;3.05;;
76617;SDS011;65509;42.816;74.648;2023-09-12T02:15:25;27.67;;;3.75;;
76617;SDS011;65509;42.816;74.648;2023-09-12T02:17:51;33.85;;;4.35;;
76617;SDS011;65509;42.816;74.648;2023-09-12T02:20:17;30.15;;;3.53;;
76617;SDS011;65509;42.816;74.648;2023-09-12T02:22:42;34.88;;;4.28;;
76617;SDS011;65509;42.816;74.648;2023-09-12T02:25:08;29.20;;;4.03;;
76617;SDS011;65509;42.816;74.648;2023-09-12T02:27:34;24.42;;;3.15;;
76617;SDS011;65509;42.816;74.648;2023-09-12T02:29:59;30.75;;;3.53;;
76617;SDS011;65509;42.816;74.648;2023-09-12T02:32:25;27.63;;;3.78;;
76617;SDS011;65509;42.816;74.648;2023-09-12T02:34:50;33.35;;;4.00;;
76617;SDS011;65509;42.816;74.648;2023-09-12T02:37:18;37.97;;;4.40;;
76617;SDS011;65509;42.816;74.648;2023-09-12T02:39:43;40.70;;;4.22;;
76617;SDS011;65509;42.816;74.648;2023-09-12T02:42:09;29.70;;;4.45;;
76617;SDS011;65509;42.816;74.648;2023-09-12T02:44:34;18.80;;;2.90;;
76617;SDS011;65509;42.816;74.648;2023-09-12T02:47:00;29.77;;;3.53;;
76617;SDS011;65509;42.816;74.648;2023-09-12T02:49:25;21.33;;;2.90;;
76617;SDS011;65509;42.816;74.648;2023-09-12T02:51:51;35.08;;;3.80;;
76617;SDS011;65509;42.816;74.648;2023-09-12T02:54:16;27.63;;;3.15;;
76617;SDS011;65509;42.816;74.648;2023-09-12T02:56:42;38.65;;;3.97;;
76617;SDS011;65509;42.816;74.648;2023-09-12T02:59:07;26.67;;;3.15;;
76617;SDS011;65509;42.816;74.648;2023-09-12T03:01:33;29.00;;;3.97;;
76617;SDS011;65509;42.816;74.648;2023-09-12T03:03:58;27.67;;;3.15;;
76617;SDS011;65509;42.816;74.648;2023-09-12T03:06:24;29.38;;;3.22;;
76617;SDS011;65509;42.816;74.648;2023-09-12T03:08:50;44.35;;;4.97;;
76617;SDS011;65509;42.816;74.648;2023-09-12T03:11:16;36.70;;;4.35;;
76617;SDS011;65509;42.816;74.648;2023-09-12T03:13:41;30.67;;;3.55;;
76617;SDS011;65509;42.816;74.648;2023-09-12T03:16:10;24.23;;;3.20;;
76617;SDS011;65509;42.816;74.648;2023-09-12T03:18:36;30.60;;;3.42;;
76617;SDS011;65509;42.816;74.648;2023-09-12T03:21:01;29.42;;;3.30;;
76617;SDS011;65509;42.816;74.648;2023-09-12T03:23:27;29.15;;;4.13;;
76617;SDS011;65509;42.816;74.648;2023-09-12T03:25:52;36.53;;;4.00;;
76617;SDS011;65509;42.816;74.648;2023-09-12T03:28:18;33.17;;;4.85;;
76617;SDS011;65509;42.816;74.648;2023-09-12T03:30:43;29.38;;;4.45;;
76617;SDS011;65509;42.816;74.648;2023-09-12T03:33:09;26.35;;;3.90;;
76617;SDS011;65509;42.816;74.648;2023-09-12T03:35:34;28.33;;;3.58;;
76617;SDS011;65509;42.816;74.648;2023-09-12T03:38:00;33.38;;;4.45;;
76617;SDS011;65509;42.816;74.648;2023-09-12T03:40:28;31.88;;;4.70;;
76617;SDS011;65509;42.816;74.648;2023-09-12T03:42:54;35.67;;;4.32;;
76617;SDS011;65509;42.816;74.648;2023-09-12T03:45:19;35.60;;;4.25;;
76617;SDS011;65509;42.816;74.648;2023-09-12T03:47:45;34.00;;;4.22;;
76617;SDS011;65509;42.816;74.648;2023-09-12T03:50:12;31.38;;;4.05;;
76617;SDS011;65509;42.816;74.648;2023-09-12T03:52:38;21.20;;;3.63;;
76617;SDS011;65509;42.816;74.648;2023-09-12T03:55:03;27.65;;;4.20;;
76617;SDS011;65509;42.816;74.648;2023-09-12T03:57:29;34.55;;;4.60;;
76617;SDS011;65509;42.816;74.648;2023-09-12T03:59:54;34.72;;;4.28;;
76617;SDS011;65509;42.816;74.648;2023-09-12T04:02:19;26.65;;;4.30;;
76617;SDS011;65509;42.816;74.648;2023-09-12T04:04:45;43.58;;;4.82;;
76617;SDS011;65509;42.816;74.648;2023-09-12T04:07:10;44.30;;;7.82;;
76617;SDS011;65509;42.816;74.648;2023-09-12T04:09:36;37.65;;;5.35;;
76617;SDS011;65509;42.816;74.648;2023-09-12T04:12:01;46.33;;;4.20;;
76617;SDS011;65509;42.816;74.648;2023-09-12T04:14:27;28.63;;;3.60;;
76617;SDS011;65509;42.816;74.648;2023-09-12T04:16:53;34.75;;;4.35;;
76617;SDS011;65509;42.816;74.648;2023-09-12T04:19:18;39.85;;;4.68;;
76617;SDS011;65509;42.816;74.648;2023-09-12T04:21:43;30.67;;;3.53;;
76617;SDS011;65509;42.816;74.648;2023-09-12T04:24:09;34.65;;;4.32;;
76617;SDS011;65509;42.816;74.648;2023-09-12T04:26:34;31.88;;;3.40;;
76617;SDS011;65509;42.816;74.648;2023-09-12T04:29:00;32.83;;;3.75;;
76617;SDS011;65509;42.816;74.648;2023-09-12T04:31:25;34.70;;;4.30;;
76617;SDS011;65509;42.816;74.648;2023-09-12T04:33:51;39.72;;;5.35;;
76617;SDS011;65509;42.816;74.648;2023-09-12T04:36:17;38.85;;;4.07;;
76617;SDS011;65509;42.816;74.648;2023-09-12T04:38:42;25.48;;;3.20;;
76617;SDS011;65509;42.816;74.648;2023-09-12T04:41:08;30.20;;;3.40;;
76617;SDS011;65509;42.816;74.648;2023-09-12T04:43:33;34.03;;;3.20;;
76617;SDS011;65509;42.816;74.648;2023-09-12T04:45:59;26.95;;;3.58;;
76617;SDS011;65509;42.816;74.648;2023-09-12T04:48:25;17.02;;;2.60;;
76617;SDS011;65509;42.816;74.648;2023-09-12T04:50:50;17.42;;;3.03;;
76617;SDS011;65509;42.816;74.648;2023-09-12T04:53:16;22.08;;;3.17;;
76617;SDS011;65509;42.816;74.648;2023-09-12T04:55:41;34.30;;;3.88;;
76617;SDS011;65509;42.816;74.648;2023-09-12T04:58:07;35.72;;;4.45;;
76617;SDS011;65509;42.816;74.648;2023-09-12T05:00:32;34.13;;;3.92;;
76617;SDS011;65509;42.816;74.648;2023-09-12T05:02:58;46.20;;;5.20;;
76617;SDS011;65509;42.816;74.648;2023-09-12T05:05:23;28.63;;;4.03;;
76617;SDS011;65509;42.816;74.648;2023-09-12T05:07:49;38.03;;;4.28;;
76617;SDS011;65509;42.816;74.648;2023-09-12T05:10:16;25.42;;;3.22;;
76617;SDS011;65509;42.816;74.648;2023-09-12T05:12:41;37.47;;;4.28;;
76617;SDS011;65509;42.816;74.648;2023-09-12T05:15:07;30.70;;;4.38;;
76617;SDS011;65509;42.816;74.648;2023-09-12T05:17:32;33.67;;;3.30;;
76617;SDS011;65509;42.816;74.648;2023-09-12T05:19:58;38.70;;;4.85;;
76617;SDS011;65509;42.816;74.648;2023-09-12T05:22:23;33.15;;;3.70;;
76617;SDS011;65509;42.816;74.648;2023-09-12T05:24:49;29.92;;;3.40;;
76617;SDS011;65509;42.816;74.648;2023-09-12T05:27:14;43.38;;;5.05;;
76617;SDS011;65509;42.816;74.648;2023-09-12T05:29:40;29.10;;;3.78;;
76617;SDS011;65509;42.816;74.648;2023-09-12T05:32:05;36.67;;;3.97;;
76617;SDS011;65509;42.816;74.648;2023-09-12T05:34:31;33.35;;;3.83;;
76617;SDS011;65509;42.816;74.648;2023-09-12T05:36:56;39.35;;;4.45;;
76617;SDS011;65509;42.816;74.648;2023-09-12T05:39:22;36.72;;;4.60;;
76617;SDS011;65509;42.816;74.648;2023-09-12T05:41:48;34.00;;;4.00;;
76617;SDS011;65509;42.816;74.648;2023-09-12T05:44:13;25.33;;;3.17;;
76617;SDS011;65509;42.816;74.648;2023-09-12T05:46:43;32.75;;;4.05;;
76617;SDS011;65509;42.816;74.648;2023-09-12T05:49:09;26.98;;;4.13;;
76617;SDS011;65509;42.816;74.648;2023-09-12T05:51:34;35.83;;;4.60;;
76617;SDS011;65509;42.816;74.648;2023-09-12T05:53:59;34.83;;;3.25;;
76617;SDS011;65509;42.816;74.648;2023-09-12T05:56:26;38.08;;;3.97;;
76617;SDS011;65509;42.816;74.648;2023-09-12T05:58:52;29.58;;;3.97;;
76617;SDS011;65509;42.816;74.648;2023-09-12T06:01:17;28.23;;;3.83;;
76617;SDS011;65509;42.816;74.648;2023-09-12T06:03:43;36.13;;;4.55;;
76617;SDS011;65509;42.816;74.648;2023-09-12T06:06:09;36.00;;;4.68;;
76617;SDS011;65509;42.816;74.648;2023-09-12T06:08:34;49.60;;;5.40;;
76617;SDS011;65509;42.816;74.648;2023-09-12T06:11:00;55.85;;;6.22;;
76617;SDS011;65509;42.816;74.648;2023-09-12T06:13:25;43.05;;;4.85;;
76617;SDS011;65509;42.816;74.648;2023-09-12T06:15:51;52.28;;;5.78;;
76617;SDS011;65509;42.816;74.648;2023-09-12T06:18:16;43.55;;;4.90;;
76617;SDS011;65509;42.816;74.648;2023-09-12T06:20:41;44.38;;;5.00;;
76617;SDS011;65509;42.816;74.648;2023-09-12T06:23:07;37.80;;;5.22;;
76617;SDS011;65509;42.816;74.648;2023-09-12T06:25:33;45.92;;;5.18;;
76617;SDS011;65509;42.816;74.648;2023-09-12T06:28:00;40.25;;;4.85;;
76617;SDS011;65509;42.816;74.648;2023-09-12T06:30:25;34.58;;;3.85;;
76617;SDS011;65509;42.816;74.648;2023-09-12T06:32:51;59.63;;;5.60;;
76617;SDS011;65509;42.816;74.648;2023-09-12T06:35:19;41.78;;;4.00;;
76617;SDS011;65509;42.816;74.648;2023-09-12T06:37:44;31.73;;;4.10;;
76617;SDS011;65509;42.816;74.648;2023-09-12T06:40:10;36.90;;;4.40;;
76617;SDS011;65509;42.816;74.648;2023-09-12T06:42:35;35.33;;;4.07;;
76617;SDS011;65509;42.816;74.648;2023-09-12T06:45:00;48.17;;;5.38;;
76617;SDS011;65509;42.816;74.648;2023-09-12T06:47:26;30.00;;;3.58;;
76617;SDS011;65509;42.816;74.648;2023-09-12T06:49:51;32.55;;;4.15;;
76617;SDS011;65509;42.816;74.648;2023-09-12T06:52:17;36.90;;;4.13;;
76617;SDS011;65509;42.816;74.648;2023-09-12T06:54:42;41.92;;;5.30;;
76617;SDS011;65509;42.816;74.648;2023-09-12T06:57:08;41.97;;;4.95;;
76617;SDS011;65509;42.816;74.648;2023-09-12T06:59:33;38.63;;;4.57;;
76617;SDS011;65509;42.816;74.648;2023-09-12T07:01:59;70.05;;;7.75;;
76617;SDS011;65509;42.816;74.648;2023-09-12T07:04:25;42.88;;;5.15;;
76617;SDS011;65509;42.816;74.648;2023-09-12T07:06:50;37.58;;;4.63;;
76617;SDS011;65509;42.816;74.648;2023-09-12T07:09:16;49.83;;;5.32;;
76617;SDS011;65509;42.816;74.648;2023-09-12T07:11:42;49.42;;;4.90;;
76617;SDS011;65509;42.816;74.648;2023-09-12T07:14:08;47.85;;;5.68;;
76617;SDS011;65509;42.816;74.648;2023-09-12T07:16:34;35.30;;;5.07;;
76617;SDS011;65509;42.816;74.648;2023-09-12T07:18:59;45.20;;;5.70;;
76617;SDS011;65509;42.816;74.648;2023-09-12T07:21:25;51.38;;;5.65;;
76617;SDS011;65509;42.816;74.648;2023-09-12T07:23:50;48.00;;;6.18;;
76617;SDS011;65509;42.816;74.648;2023-09-12T07:26:16;39.08;;;5.70;;
76617;SDS011;65509;42.816;74.648;2023-09-12T07:28:41;44.13;;;7.95;;
76617;SDS011;65509;42.816;74.648;2023-09-12T07:31:07;36.83;;;6.15;;
76617;SDS011;65509;42.816;74.648;2023-09-12T07:33:32;61.38;;;8.10;;
76617;SDS011;65509;42.816;74.648;2023-09-12T07:35:58;45.83;;;6.95;;
76617;SDS011;65509;42.816;74.648;2023-09-12T07:38:24;49.80;;;7.68;;
76617;SDS011;65509;42.816;74.648;2023-09-12T07:40:50;28.05;;;4.40;;
76617;SDS011;65509;42.816;74.648;2023-09-12T07:43:16;17.88;;;3.30;;
76617;SDS011;65509;42.816;74.648;2023-09-12T07:45:41;32.55;;;4.60;;
76617;SDS011;65509;42.816;74.648;2023-09-12T07:48:08;36.13;;;5.40;;
76617;SDS011;65509;42.816;74.648;2023-09-12T07:50:38;31.40;;;4.32;;
76617;SDS011;65509;42.816;74.648;2023-09-12T07:53:07;40.85;;;5.50;;
76617;SDS011;65509;42.816;74.648;2023-09-12T07:55:38;34.70;;;4.60;;
76617;SDS011;65509;42.816;74.648;2023-09-12T07:58:17;23.25;;;3.90;;
76617;SDS011;65509;42.816;74.648;2023-09-12T08:00:46;24.13;;;3.63;;
76617;SDS011;65509;42.816;74.648;2023-09-12T08:03:12;35.03;;;4.40;;
76617;SDS011;65509;42.816;74.648;2023-09-12T08:05:37;20.70;;;3.33;;
76617;SDS011;65509;42.816;74.648;2023-09-12T08:08:03;33.95;;;5.15;;
76617;SDS011;65509;42.816;74.648;2023-09-12T08:10:29;37.65;;;5.82;;
76617;SDS011;65509;42.816;74.648;2023-09-12T08:12:54;51.08;;;7.05;;
76617;SDS011;65509;42.816;74.648;2023-09-12T08:15:19;39.90;;;5.88;;
76617;SDS011;65509;42.816;74.648;2023-09-12T08:17:45;54.25;;;6.45;;
76617;SDS011;65509;42.816;74.648;2023-09-12T08:20:11;50.85;;;7.03;;
76617;SDS011;65509;42.816;74.648;2023-09-12T08:22:36;35.88;;;5.35;;
76617;SDS011;65509;42.816;74.648;2023-09-12T08:25:02;56.70;;;6.63;;
76617;SDS011;65509;42.816;74.648;2023-09-12T08:27:27;49.15;;;5.88;;
76617;SDS011;65509;42.816;74.648;2023-09-12T08:29:53;41.70;;;5.47;;
76617;SDS011;65509;42.816;74.648;2023-09-12T08:32:19;33.78;;;4.82;;
76617;SDS011;65509;42.816;74.648;2023-09-12T08:34:45;40.20;;;4.93;;
76617;SDS011;65509;42.816;74.648;2023-09-12T08:37:10;54.95;;;6.72;;
76617;SDS011;65509;42.816;74.648;2023-09-12T08:39:42;50.30;;;6.88;;
76617;SDS011;65509;42.816;74.648;2023-09-12T08:42:14;49.42;;;5.40;;
76617;SDS011;65509;42.816;74.648;2023-09-12T08:44:40;47.88;;;5.55;;
76617;SDS011;65509;42.816;74.648;2023-09-12T08:47:07;48.13;;;6.75;;
76617;SDS011;65509;42.816;74.648;2023-09-12T08:49:33;42.65;;;7.32;;
76617;SDS011;65509;42.816;74.648;2023-09-12T08:52:00;48.38;;;5.75;;
76617;SDS011;65509;42.816;74.648;2023-09-12T08:54:25;43.85;;;5.63;;
76617;SDS011;65509;42.816;74.648;2023-09-12T08:56:51;44.13;;;5.80;;
76617;SDS011;65509;42.816;74.648;2023-09-12T08:59:16;38.88;;;4.88;;
76617;SDS011;65509;42.816;74.648;2023-09-12T09:01:42;41.20;;;5.55;;
76617;SDS011;65509;42.816;74.648;2023-09-12T09:04:07;63.15;;;6.97;;
76617;SDS011;65509;42.816;74.648;2023-09-12T09:06:33;68.15;;;6.85;;
76617;SDS011;65509;42.816;74.648;2023-09-12T09:09:02;53.38;;;6.22;;
76617;SDS011;65509;42.816;74.648;2023-09-12T09:11:29;48.70;;;6.40;;
76617;SDS011;65509;42.816;74.648;2023-09-12T09:13:55;50.72;;;6.43;;
76617;SDS011;65509;42.816;74.648;2023-09-12T09:16:21;60.85;;;7.03;;
76617;SDS011;65509;42.816;74.648;2023-09-12T09:18:57;41.45;;;5.95;;
76617;SDS011;65509;42.816;74.648;2023-09-12T09:21:24;42.75;;;4.82;;
76617;SDS011;65509;42.816;74.648;2023-09-12T09:23:51;43.25;;;5.53;;
76617;SDS011;65509;42.816;74.648;2023-09-12T09:26:16;42.80;;;5.55;;
76617;SDS011;65509;42.816;74.648;2023-09-12T09:28:42;45.45;;;5.75;;
76617;SDS011;65509;42.816;74.648;2023-09-12T09:31:10;46.83;;;6.82;;
76617;SDS011;65509;42.816;74.648;2023-09-12T09:33:35;49.28;;;5.82;;
76617;SDS011;65509;42.816;74.648;2023-09-12T09:36:02;45.65;;;5.88;;
76617;SDS011;65509;42.816;74.648;2023-09-12T09:38:28;50.90;;;6.78;;
76617;SDS011;65509;42.816;74.648;2023-09-12T09:40:53;41.97;;;5.78;;
76617;SDS011;65509;42.816;74.648;2023-09-12T09:43:19;44.28;;;6.20;;
76617;SDS011;65509;42.816;74.648;2023-09-12T09:45:45;24.45;;;4.90;;
76617;SDS011;65509;42.816;74.648;2023-09-12T09:48:17;48.65;;;5.63;;
76617;SDS011;65509;42.816;74.648;2023-09-12T09:50:43;39.58;;;5.70;;
76617;SDS011;65509;42.816;74.648;2023-09-12T09:53:08;44.15;;;5.72;;
76617;SDS011;65509;42.816;74.648;2023-09-12T09:55:36;40.75;;;5.88;;
76617;SDS011;65509;42.816;74.648;2023-09-12T09:58:02;48.05;;;6.32;;
76617;SDS011;65509;42.816;74.648;2023-09-12T10:00:28;49.80;;;5.75;;
76617;SDS011;65509;42.816;74.648;2023-09-12T10:02:54;41.08;;;5.60;;
76617;SDS011;65509;42.816;74.648;2023-09-12T10:05:20;37.88;;;4.78;;
76617;SDS011;65509;42.816;74.648;2023-09-12T10:07:48;37.03;;;4.63;;
76617;SDS011;65509;42.816;74.648;2023-09-12T10:10:16;38.90;;;5.57;;
76617;SDS011;65509;42.816;74.648;2023-09-12T10:12:45;31.15;;;4.25;;
76617;SDS011;65509;42.816;74.648;2023-09-12T10:15:13;47.30;;;6.50;;
76617;SDS011;65509;42.816;74.648;2023-09-12T10:17:40;29.42;;;4.18;;
76617;SDS011;65509;42.816;74.648;2023-09-12T10:20:08;49.20;;;6.30;;
76617;SDS011;65509;42.816;74.648;2023-09-12T10:22:44;37.90;;;5.47;;
76617;SDS011;65509;42.816;74.648;2023-09-12T10:25:13;35.08;;;5.45;;
76617;SDS011;65509;42.816;74.648;2023-09-12T10:27:39;47.78;;;5.03;;
76617;SDS011;65509;42.816;74.648;2023-09-12T10:30:05;41.65;;;5.63;;
76617;SDS011;65509;42.816;74.648;2023-09-12T10:32:32;39.22;;;4.80;;
76617;SDS011;65509;42.816;74.648;2023-09-12T10:34:58;29.95;;;4.85;;
76617;SDS011;65509;42.816;74.648;2023-09-12T10:37:23;32.70;;;4.45;;
76617;SDS011;65509;42.816;74.648;2023-09-12T10:39:52;28.75;;;4.45;;
76617;SDS011;65509;42.816;74.648;2023-09-12T10:42:18;34.30;;;4.50;;
76617;SDS011;65509;42.816;74.648;2023-09-12T10:44:45;38.40;;;4.93;;
76617;SDS011;65509;42.816;74.648;2023-09-12T10:47:11;53.40;;;7.10;;
76617;SDS011;65509;42.816;74.648;2023-09-12T10:49:37;47.78;;;6.57;;
76617;SDS011;65509;42.816;74.648;2023-09-12T10:52:02;46.35;;;5.95;;
76617;SDS011;65509;42.816;74.648;2023-09-12T10:54:46;46.45;;;5.95;;
76617;SDS011;65509;42.816;74.648;2023-09-12T10:57:11;39.55;;;5.75;;
76617;SDS011;65509;42.816;74.648;2023-09-12T11:04:47;37.17;;;5.13;;
76617;SDS011;65509;42.816;74.648;2023-09-12T11:12:37;31.55;;;5.03;;
76617;SDS011;65509;42.816;74.648;2023-09-12T11:15:03;39.15;;;6.63;;
76617;SDS011;65509;42.816;74.648;2023-09-12T11:17:30;42.05;;;5.00;;
76617;SDS011;65509;42.816;74.648;2023-09-12T11:20:04;36.08;;;4.82;;
76617;SDS011;65509;42.816;74.648;2023-09-12T11:22:39;32.90;;;5.18;;
76617;SDS011;65509;42.816;74.648;2023-09-12T11:25:05;50.33;;;5.82;;
76617;SDS011;65509;42.816;74.648;2023-09-12T11:27:44;35.38;;;4.90;;
76617;SDS011;65509;42.816;74.648;2023-09-12T11:30:10;44.50;;;5.88;;
76617;SDS011;65509;42.816;74.648;2023-09-12T11:32:36;34.85;;;4.97;;
76617;SDS011;65509;42.816;74.648;2023-09-12T11:35:08;39.92;;;5.45;;
76617;SDS011;65509;42.816;74.648;2023-09-12T11:37:33;36.33;;;5.65;;
76617;SDS011;65509;42.816;74.648;2023-09-12T11:40:02;28.98;;;5.00;;
76617;SDS011;65509;42.816;74.648;2023-09-12T11:42:28;34.80;;;4.95;;
76617;SDS011;65509;42.816;74.648;2023-09-12T11:44:53;28.63;;;4.72;;
76617;SDS011;65509;42.816;74.648;2023-09-12T11:47:19;43.78;;;5.40;;
76617;SDS011;65509;42.816;74.648;2023-09-12T11:49:45;32.72;;;4.70;;
76617;SDS011;65509;42.816;74.648;2023-09-12T11:52:11;35.08;;;5.50;;
76617;SDS011;65509;42.816;74.648;2023-09-12T11:54:38;30.15;;;4.30;;
76617;SDS011;65509;42.816;74.648;2023-09-12T11:57:04;30.30;;;4.03;;
76617;SDS011;65509;42.816;74.648;2023-09-12T11:59:29;36.35;;;5.20;;
76617;SDS011;65509;42.816;74.648;2023-09-12T12:01:55;31.13;;;4.72;;
76617;SDS011;65509;42.816;74.648;2023-09-12T12:04:23;30.48;;;4.43;;
76617;SDS011;65509;42.816;74.648;2023-09-12T12:06:51;36.00;;;4.90;;
76617;SDS011;65509;42.816;74.648;2023-09-12T12:09:17;38.88;;;4.93;;
76617;SDS011;65509;42.816;74.648;2023-09-12T12:11:46;27.20;;;4.60;;
76617;SDS011;65509;42.816;74.648;2023-09-12T12:14:12;34.67;;;4.55;;
76617;SDS011;65509;42.816;74.648;2023-09-12T12:16:40;28.80;;;4.13;;
76617;SDS011;65509;42.816;74.648;2023-09-12T12:19:05;30.98;;;4.47;;
76617;SDS011;65509;42.816;74.648;2023-09-12T12:21:31;36.60;;;4.40;;
76617;SDS011;65509;42.816;74.648;2023-09-12T12:23:57;26.38;;;3.67;;
76617;SDS011;65509;42.816;74.648;2023-09-12T12:26:24;36.58;;;5.10;;
76617;SDS011;65509;42.816;74.648;2023-09-12T12:28:49;31.73;;;4.47;;
76617;SDS011;65509;42.816;74.648;2023-09-12T12:31:15;60.30;;;6.28;;
76617;SDS011;65509;42.816;74.648;2023-09-12T12:33:40;26.92;;;4.30;;
76617;SDS011;65509;42.816;74.648;2023-09-12T12:36:12;33.45;;;5.22;;
76617;SDS011;65509;42.816;74.648;2023-09-12T12:38:38;32.83;;;5.88;;
76617;SDS011;65509;42.816;74.648;2023-09-12T12:41:04;29.67;;;5.00;;
76617;SDS011;65509;42.816;74.648;2023-09-12T12:43:30;27.25;;;4.82;;
76617;SDS011;65509;42.816;74.648;2023-09-12T12:45:56;33.38;;;5.15;;
76617;SDS011;65509;42.816;74.648;2023-09-12T12:48:29;34.40;;;4.60;;
76617;SDS011;65509;42.816;74.648;2023-09-12T12:50:55;34.42;;;4.47;;
76617;SDS011;65509;42.816;74.648;2023-09-12T12:53:36;29.70;;;4.30;;
76617;SDS011;65509;42.816;74.648;2023-09-12T12:56:05;32.20;;;4.68;;
76617;SDS011;65509;42.816;74.648;2023-09-12T12:58:31;28.05;;;4.07;;
76617;SDS011;65509;42.816;74.648;2023-09-12T13:00:57;30.42;;;4.80;;
76617;SDS011;65509;42.816;74.648;2023-09-12T13:03:22;52.15;;;6.78;;
76617;SDS011;65509;42.816;74.648;2023-09-12T13:05:48;66.00;;;7.85;;
76617;SDS011;65509;42.816;74.648;2023-09-12T13:08:13;47.90;;;5.93;;
76617;SDS011;65509;42.816;74.648;2023-09-12T13:10:38;42.65;;;5.95;;
76617;SDS011;65509;42.816;74.648;2023-09-12T13:13:04;49.30;;;5.60;;
76617;SDS011;65509;42.816;74.648;2023-09-12T13:15:30;45.63;;;5.88;;
76617;SDS011;65509;42.816;74.648;2023-09-12T13:17:55;54.20;;;6.47;;
76617;SDS011;65509;42.816;74.648;2023-09-12T13:20:21;70.35;;;7.15;;
76617;SDS011;65509;42.816;74.648;2023-09-12T13:22:46;57.97;;;8.32;;
76617;SDS011;65509;42.816;74.648;2023-09-12T13:25:12;53.88;;;7.97;;
76617;SDS011;65509;42.816;74.648;2023-09-12T13:27:37;54.45;;;6.20;;
76617;SDS011;65509;42.816;74.648;2023-09-12T13:30:03;62.65;;;6.00;;
76617;SDS011;65509;42.816;74.648;2023-09-12T13:32:28;60.25;;;7.38;;
76617;SDS011;65509;42.816;74.648;2023-09-12T13:34:56;54.75;;;6.60;;
76617;SDS011;65509;42.816;74.648;2023-09-12T13:37:22;54.67;;;13.00;;
76617;SDS011;65509;42.816;74.648;2023-09-12T13:39:47;62.97;;;11.77;;
76617;SDS011;65509;42.816;74.648;2023-09-12T13:42:17;61.47;;;11.48;;
76617;SDS011;65509;42.816;74.648;2023-09-12T13:44:49;56.45;;;9.23;;
76617;SDS011;65509;42.816;74.648;2023-09-12T13:47:15;58.28;;;8.23;;
76617;SDS011;65509;42.816;74.648;2023-09-12T13:49:47;61.88;;;8.57;;
76617;SDS011;65509;42.816;74.648;2023-09-12T13:52:12;72.25;;;8.40;;
76617;SDS011;65509;42.816;74.648;2023-09-12T13:54:39;60.67;;;7.45;;
76617;SDS011;65509;42.816;74.648;2023-09-12T13:57:04;53.75;;;8.05;;
76617;SDS011;65509;42.816;74.648;2023-09-12T13:59:30;54.47;;;10.75;;
76617;SDS011;65509;42.816;74.648;2023-09-12T14:01:55;157.40;;;60.25;;
76617;SDS011;65509;42.816;74.648;2023-09-12T14:04:21;106.15;;;33.67;;
76617;SDS011;65509;42.816;74.648;2023-09-12T14:06:46;75.15;;;18.95;;
76617;SDS011;65509;42.816;74.648;2023-09-12T14:09:12;80.05;;;29.02;;
76617;SDS011;65509;42.816;74.648;2023-09-12T14:11:37;79.25;;;22.02;;
76617;SDS011;65509;42.816;74.648;2023-09-12T14:14:03;104.35;;;37.15;;
76617;SDS011;65509;42.816;74.648;2023-09-12T14:16:28;126.55;;;48.10;;
76617;SDS011;65509;42.816;74.648;2023-09-12T14:18:55;127.97;;;52.28;;
76617;SDS011;65509;42.816;74.648;2023-09-12T14:21:21;174.70;;;77.22;;
76617;SDS011;65509;42.816;74.648;2023-09-12T14:23:49;104.05;;;40.30;;
76617;SDS011;65509;42.816;74.648;2023-09-12T14:26:14;98.63;;;33.47;;
76617;SDS011;65509;42.816;74.648;2023-09-12T14:28:40;90.10;;;27.17;;